Terminal Aerodrome Forecast
Issued by NWS

Home | Current Version | Previous Version | Text Only | Print | Product List | Glossary On
Versions: 1 2 3 4 5 6 7 8 9 10 11 12 13 14 15 16 17 18 19
000
FTUS43 KGRB 251700
TAFAUW
TAF
KAUW 251726Z 2518/2618 07009KT P6SM BKN020
     FM252000 05007KT P6SM SCT025 SCT120
     FM252200 VRB03KT P6SM SCT120
     FM260600 17004KT P6SM BKN090 OVC150
     FM261500 18009KT 1SM -SN SCT009 OVC015=

USA.gov is the U.S. government's official web portal to all federal, state and local government web resources and services.